sensor_id;sensor_type;location;lat;lon;timestamp;P1;durP1;ratioP1;P2;durP2;ratioP2
9288;SDS011;4683;50.864;12.086;2024-01-15T00:00:46;10.47;;;7.43;;
9288;SDS011;4683;50.864;12.086;2024-01-15T00:03:17;9.53;;;7.20;;
9288;SDS011;4683;50.864;12.086;2024-01-15T00:05:48;8.47;;;6.23;;
9288;SDS011;4683;50.864;12.086;2024-01-15T00:08:17;11.33;;;7.27;;
9288;SDS011;4683;50.864;12.086;2024-01-15T00:10:46;10.07;;;6.77;;
9288;SDS011;4683;50.864;12.086;2024-01-15T00:13:15;10.93;;;7.40;;
9288;SDS011;4683;50.864;12.086;2024-01-15T00:15:46;9.20;;;6.03;;
9288;SDS011;4683;50.864;12.086;2024-01-15T00:18:15;10.63;;;6.90;;
9288;SDS011;4683;50.864;12.086;2024-01-15T00:21:09;10.50;;;7.63;;
9288;SDS011;4683;50.864;12.086;2024-01-15T00:23:39;10.53;;;7.27;;
9288;SDS011;4683;50.864;12.086;2024-01-15T00:26:12;9.97;;;7.37;;
9288;SDS011;4683;50.864;12.086;2024-01-15T00:28:45;9.97;;;7.00;;
9288;SDS011;4683;50.864;12.086;2024-01-15T00:31:15;9.30;;;6.87;;
9288;SDS011;4683;50.864;12.086;2024-01-15T00:33:45;10.03;;;7.50;;
9288;SDS011;4683;50.864;12.086;2024-01-15T00:36:16;10.57;;;7.53;;
9288;SDS011;4683;50.864;12.086;2024-01-15T00:38:45;11.33;;;7.77;;
9288;SDS011;4683;50.864;12.086;2024-01-15T00:41:15;11.07;;;7.53;;
9288;SDS011;4683;50.864;12.086;2024-01-15T00:44:00;11.97;;;8.40;;
9288;SDS011;4683;50.864;12.086;2024-01-15T00:46:46;9.90;;;7.60;;
9288;SDS011;4683;50.864;12.086;2024-01-15T00:49:14;10.27;;;6.67;;
9288;SDS011;4683;50.864;12.086;2024-01-15T00:51:48;10.13;;;7.47;;
9288;SDS011;4683;50.864;12.086;2024-01-15T00:54:17;8.10;;;6.37;;
9288;SDS011;4683;50.864;12.086;2024-01-15T00:56:46;10.40;;;7.37;;
9288;SDS011;4683;50.864;12.086;2024-01-15T00:59:15;7.80;;;6.13;;
9288;SDS011;4683;50.864;12.086;2024-01-15T01:02:01;10.47;;;6.80;;
9288;SDS011;4683;50.864;12.086;2024-01-15T01:04:30;9.93;;;7.23;;
9288;SDS011;4683;50.864;12.086;2024-01-15T01:07:00;10.77;;;7.57;;
9288;SDS011;4683;50.864;12.086;2024-01-15T01:13:36;8.13;;;5.90;;
9288;SDS011;4683;50.864;12.086;2024-01-15T01:16:16;10.77;;;7.47;;
9288;SDS011;4683;50.864;12.086;2024-01-15T01:18:44;10.63;;;7.47;;
9288;SDS011;4683;50.864;12.086;2024-01-15T01:21:12;9.37;;;7.60;;
9288;SDS011;4683;50.864;12.086;2024-01-15T01:23:42;11.17;;;7.80;;
9288;SDS011;4683;50.864;12.086;2024-01-15T01:26:14;10.77;;;7.57;;
9288;SDS011;4683;50.864;12.086;2024-01-15T01:28:43;8.10;;;7.07;;
9288;SDS011;4683;50.864;12.086;2024-01-15T01:31:11;10.07;;;7.43;;
9288;SDS011;4683;50.864;12.086;2024-01-15T01:33:40;9.70;;;7.17;;
9288;SDS011;4683;50.864;12.086;2024-01-15T01:36:08;11.27;;;7.47;;
9288;SDS011;4683;50.864;12.086;2024-01-15T01:38:37;9.93;;;7.83;;
9288;SDS011;4683;50.864;12.086;2024-01-15T01:41:08;9.97;;;7.57;;
9288;SDS011;4683;50.864;12.086;2024-01-15T01:43:37;7.63;;;6.83;;
9288;SDS011;4683;50.864;12.086;2024-01-15T01:46:05;8.87;;;7.53;;
9288;SDS011;4683;50.864;12.086;2024-01-15T01:48:34;9.03;;;6.53;;
9288;SDS011;4683;50.864;12.086;2024-01-15T01:51:03;10.53;;;8.03;;
9288;SDS011;4683;50.864;12.086;2024-01-15T01:53:33;10.47;;;7.67;;
9288;SDS011;4683;50.864;12.086;2024-01-15T01:56:05;8.87;;;6.33;;
9288;SDS011;4683;50.864;12.086;2024-01-15T01:58:36;10.33;;;7.00;;
9288;SDS011;4683;50.864;12.086;2024-01-15T02:01:05;11.70;;;7.40;;
9288;SDS011;4683;50.864;12.086;2024-01-15T02:03:34;8.80;;;7.30;;
9288;SDS011;4683;50.864;12.086;2024-01-15T02:06:03;10.63;;;8.23;;
9288;SDS011;4683;50.864;12.086;2024-01-15T02:08:32;10.70;;;7.67;;
9288;SDS011;4683;50.864;12.086;2024-01-15T02:11:01;13.10;;;8.57;;
9288;SDS011;4683;50.864;12.086;2024-01-15T02:13:29;11.83;;;8.30;;
9288;SDS011;4683;50.864;12.086;2024-01-15T02:15:59;13.33;;;8.87;;
9288;SDS011;4683;50.864;12.086;2024-01-15T02:18:28;11.73;;;8.80;;
9288;SDS011;4683;50.864;12.086;2024-01-15T02:20:56;13.07;;;8.90;;
9288;SDS011;4683;50.864;12.086;2024-01-15T02:23:29;10.83;;;8.33;;
9288;SDS011;4683;50.864;12.086;2024-01-15T02:25:58;12.87;;;8.47;;
9288;SDS011;4683;50.864;12.086;2024-01-15T02:28:26;12.53;;;7.90;;
9288;SDS011;4683;50.864;12.086;2024-01-15T02:30:56;6.20;;;4.40;;
9288;SDS011;4683;50.864;12.086;2024-01-15T02:33:24;12.60;;;8.37;;
9288;SDS011;4683;50.864;12.086;2024-01-15T02:35:53;11.47;;;8.97;;
9288;SDS011;4683;50.864;12.086;2024-01-15T02:38:22;11.93;;;8.87;;
9288;SDS011;4683;50.864;12.086;2024-01-15T02:40:52;10.77;;;7.87;;
9288;SDS011;4683;50.864;12.086;2024-01-15T02:43:20;12.20;;;7.87;;
9288;SDS011;4683;50.864;12.086;2024-01-15T02:45:49;13.07;;;8.80;;
9288;SDS011;4683;50.864;12.086;2024-01-15T02:48:18;12.03;;;8.17;;
9288;SDS011;4683;50.864;12.086;2024-01-15T02:50:46;9.23;;;6.27;;
9288;SDS011;4683;50.864;12.086;2024-01-15T02:53:15;10.07;;;7.83;;
9288;SDS011;4683;50.864;12.086;2024-01-15T02:55:54;12.87;;;7.97;;
9288;SDS011;4683;50.864;12.086;2024-01-15T02:58:26;13.63;;;7.47;;
9288;SDS011;4683;50.864;12.086;2024-01-15T03:00:54;12.27;;;8.33;;
9288;SDS011;4683;50.864;12.086;2024-01-15T03:03:22;11.20;;;7.70;;
9288;SDS011;4683;50.864;12.086;2024-01-15T03:05:51;13.27;;;8.50;;
9288;SDS011;4683;50.864;12.086;2024-01-15T03:08:22;11.43;;;8.27;;
9288;SDS011;4683;50.864;12.086;2024-01-15T03:10:51;9.80;;;6.23;;
9288;SDS011;4683;50.864;12.086;2024-01-15T03:13:21;9.23;;;6.63;;
9288;SDS011;4683;50.864;12.086;2024-01-15T03:15:49;13.23;;;8.47;;
9288;SDS011;4683;50.864;12.086;2024-01-15T03:18:19;10.03;;;6.97;;
9288;SDS011;4683;50.864;12.086;2024-01-15T03:24:11;14.73;;;8.83;;
9288;SDS011;4683;50.864;12.086;2024-01-15T03:26:41;10.60;;;6.43;;
9288;SDS011;4683;50.864;12.086;2024-01-15T03:29:10;11.10;;;8.07;;
9288;SDS011;4683;50.864;12.086;2024-01-15T03:31:40;12.50;;;7.97;;
9288;SDS011;4683;50.864;12.086;2024-01-15T03:34:08;12.43;;;9.07;;
9288;SDS011;4683;50.864;12.086;2024-01-15T03:36:37;10.87;;;7.83;;
9288;SDS011;4683;50.864;12.086;2024-01-15T03:39:06;11.60;;;7.77;;
9288;SDS011;4683;50.864;12.086;2024-01-15T03:41:36;10.10;;;8.37;;
9288;SDS011;4683;50.864;12.086;2024-01-15T03:44:07;13.90;;;8.97;;
9288;SDS011;4683;50.864;12.086;2024-01-15T03:46:36;11.93;;;8.83;;
9288;SDS011;4683;50.864;12.086;2024-01-15T03:49:04;12.57;;;8.47;;
9288;SDS011;4683;50.864;12.086;2024-01-15T03:51:38;10.53;;;7.67;;
9288;SDS011;4683;50.864;12.086;2024-01-15T03:54:06;9.30;;;7.07;;
9288;SDS011;4683;50.864;12.086;2024-01-15T03:56:35;8.33;;;5.53;;
9288;SDS011;4683;50.864;12.086;2024-01-15T03:59:04;11.10;;;8.40;;
9288;SDS011;4683;50.864;12.086;2024-01-15T04:01:35;9.97;;;7.27;;
9288;SDS011;4683;50.864;12.086;2024-01-15T04:04:07;11.90;;;7.20;;
9288;SDS011;4683;50.864;12.086;2024-01-15T04:06:36;11.23;;;7.30;;
9288;SDS011;4683;50.864;12.086;2024-01-15T04:09:06;10.07;;;6.87;;
9288;SDS011;4683;50.864;12.086;2024-01-15T04:11:40;11.40;;;7.97;;
9288;SDS011;4683;50.864;12.086;2024-01-15T04:14:15;11.27;;;7.90;;
9288;SDS011;4683;50.864;12.086;2024-01-15T04:16:47;11.37;;;7.93;;
9288;SDS011;4683;50.864;12.086;2024-01-15T04:19:16;11.80;;;7.77;;
9288;SDS011;4683;50.864;12.086;2024-01-15T04:21:50;12.20;;;8.60;;
9288;SDS011;4683;50.864;12.086;2024-01-15T04:24:18;12.77;;;8.10;;
9288;SDS011;4683;50.864;12.086;2024-01-15T04:26:53;11.23;;;7.77;;
9288;SDS011;4683;50.864;12.086;2024-01-15T04:29:21;11.37;;;8.17;;
9288;SDS011;4683;50.864;12.086;2024-01-15T04:31:51;11.47;;;7.77;;
9288;SDS011;4683;50.864;12.086;2024-01-15T04:34:20;12.67;;;8.57;;
9288;SDS011;4683;50.864;12.086;2024-01-15T04:36:56;12.73;;;8.87;;
9288;SDS011;4683;50.864;12.086;2024-01-15T04:39:24;11.70;;;8.90;;
9288;SDS011;4683;50.864;12.086;2024-01-15T04:41:53;12.13;;;8.77;;
9288;SDS011;4683;50.864;12.086;2024-01-15T04:44:23;12.27;;;8.67;;
9288;SDS011;4683;50.864;12.086;2024-01-15T04:46:54;10.73;;;8.00;;
9288;SDS011;4683;50.864;12.086;2024-01-15T04:49:24;11.03;;;7.57;;
9288;SDS011;4683;50.864;12.086;2024-01-15T04:51:56;11.30;;;7.47;;
9288;SDS011;4683;50.864;12.086;2024-01-15T04:54:26;10.70;;;8.10;;
9288;SDS011;4683;50.864;12.086;2024-01-15T04:56:57;11.33;;;8.30;;
9288;SDS011;4683;50.864;12.086;2024-01-15T04:59:26;10.63;;;6.90;;
9288;SDS011;4683;50.864;12.086;2024-01-15T05:01:56;9.20;;;6.57;;
9288;SDS011;4683;50.864;12.086;2024-01-15T05:04:25;8.97;;;6.70;;
9288;SDS011;4683;50.864;12.086;2024-01-15T05:06:56;10.03;;;6.90;;
9288;SDS011;4683;50.864;12.086;2024-01-15T05:09:24;9.73;;;6.83;;
9288;SDS011;4683;50.864;12.086;2024-01-15T05:11:53;9.00;;;6.90;;
9288;SDS011;4683;50.864;12.086;2024-01-15T05:14:22;9.13;;;6.40;;
9288;SDS011;4683;50.864;12.086;2024-01-15T05:16:52;11.67;;;7.27;;
9288;SDS011;4683;50.864;12.086;2024-01-15T05:19:25;9.17;;;6.03;;
9288;SDS011;4683;50.864;12.086;2024-01-15T05:21:58;9.83;;;6.53;;
9288;SDS011;4683;50.864;12.086;2024-01-15T05:24:32;7.87;;;6.30;;
9288;SDS011;4683;50.864;12.086;2024-01-15T05:27:20;7.37;;;4.70;;
9288;SDS011;4683;50.864;12.086;2024-01-15T05:29:50;8.10;;;5.53;;
9288;SDS011;4683;50.864;12.086;2024-01-15T05:32:34;10.47;;;6.40;;
9288;SDS011;4683;50.864;12.086;2024-01-15T05:35:06;8.30;;;5.20;;
9288;SDS011;4683;50.864;12.086;2024-01-15T05:37:44;7.70;;;5.67;;
9288;SDS011;4683;50.864;12.086;2024-01-15T05:40:13;7.67;;;5.97;;
9288;SDS011;4683;50.864;12.086;2024-01-15T05:42:44;7.80;;;5.63;;
9288;SDS011;4683;50.864;12.086;2024-01-15T05:45:14;7.03;;;5.27;;
9288;SDS011;4683;50.864;12.086;2024-01-15T05:47:46;5.73;;;5.07;;
9288;SDS011;4683;50.864;12.086;2024-01-15T05:50:19;4.47;;;3.93;;
9288;SDS011;4683;50.864;12.086;2024-01-15T05:52:49;6.30;;;5.43;;
9288;SDS011;4683;50.864;12.086;2024-01-15T05:55:55;8.13;;;5.67;;
9288;SDS011;4683;50.864;12.086;2024-01-15T05:58:40;7.40;;;5.77;;
9288;SDS011;4683;50.864;12.086;2024-01-15T06:01:27;5.27;;;3.77;;
9288;SDS011;4683;50.864;12.086;2024-01-15T06:03:56;6.17;;;4.77;;
9288;SDS011;4683;50.864;12.086;2024-01-15T06:06:45;8.10;;;6.23;;
9288;SDS011;4683;50.864;12.086;2024-01-15T06:09:27;6.50;;;5.20;;
9288;SDS011;4683;50.864;12.086;2024-01-15T06:12:14;7.97;;;5.60;;
9288;SDS011;4683;50.864;12.086;2024-01-15T06:15:00;8.00;;;5.53;;
9288;SDS011;4683;50.864;12.086;2024-01-15T06:17:35;7.80;;;5.63;;
9288;SDS011;4683;50.864;12.086;2024-01-15T06:20:19;6.20;;;5.33;;
9288;SDS011;4683;50.864;12.086;2024-01-15T06:23:07;7.27;;;5.77;;
9288;SDS011;4683;50.864;12.086;2024-01-15T06:25:57;6.00;;;5.20;;
9288;SDS011;4683;50.864;12.086;2024-01-15T06:28:35;7.60;;;6.00;;
9288;SDS011;4683;50.864;12.086;2024-01-15T06:31:11;6.90;;;5.10;;
9288;SDS011;4683;50.864;12.086;2024-01-15T06:33:41;7.40;;;5.17;;
9288;SDS011;4683;50.864;12.086;2024-01-15T06:36:29;5.53;;;4.33;;
9288;SDS011;4683;50.864;12.086;2024-01-15T06:39:00;7.77;;;5.10;;
9288;SDS011;4683;50.864;12.086;2024-01-15T06:41:47;6.80;;;5.47;;
9288;SDS011;4683;50.864;12.086;2024-01-15T06:44:17;7.93;;;6.03;;
9288;SDS011;4683;50.864;12.086;2024-01-15T06:46:59;7.00;;;5.83;;
9288;SDS011;4683;50.864;12.086;2024-01-15T06:49:47;8.53;;;6.07;;
9288;SDS011;4683;50.864;12.086;2024-01-15T06:52:24;6.53;;;5.13;;
9288;SDS011;4683;50.864;12.086;2024-01-15T06:55:07;6.57;;;5.40;;
9288;SDS011;4683;50.864;12.086;2024-01-15T06:57:54;7.97;;;5.77;;
9288;SDS011;4683;50.864;12.086;2024-01-15T07:00:25;7.30;;;5.20;;
9288;SDS011;4683;50.864;12.086;2024-01-15T07:02:54;5.77;;;5.17;;
9288;SDS011;4683;50.864;12.086;2024-01-15T07:05:23;8.40;;;5.93;;
9288;SDS011;4683;50.864;12.086;2024-01-15T07:07:52;9.80;;;5.53;;
9288;SDS011;4683;50.864;12.086;2024-01-15T07:10:25;7.90;;;5.97;;
9288;SDS011;4683;50.864;12.086;2024-01-15T07:12:54;9.10;;;6.40;;
9288;SDS011;4683;50.864;12.086;2024-01-15T07:15:47;6.17;;;5.50;;
9288;SDS011;4683;50.864;12.086;2024-01-15T07:18:35;6.57;;;5.60;;
9288;SDS011;4683;50.864;12.086;2024-01-15T07:21:13;8.20;;;5.43;;
9288;SDS011;4683;50.864;12.086;2024-01-15T07:23:42;8.40;;;6.33;;
9288;SDS011;4683;50.864;12.086;2024-01-15T07:26:16;7.33;;;5.97;;
9288;SDS011;4683;50.864;12.086;2024-01-15T07:28:45;7.77;;;5.47;;
9288;SDS011;4683;50.864;12.086;2024-01-15T07:31:15;7.40;;;5.97;;
9288;SDS011;4683;50.864;12.086;2024-01-15T07:33:46;7.87;;;5.33;;
9288;SDS011;4683;50.864;12.086;2024-01-15T07:36:15;6.93;;;5.83;;
9288;SDS011;4683;50.864;12.086;2024-01-15T07:38:49;7.83;;;5.60;;
9288;SDS011;4683;50.864;12.086;2024-01-15T07:41:19;9.57;;;5.90;;
9288;SDS011;4683;50.864;12.086;2024-01-15T07:43:51;7.03;;;4.97;;
9288;SDS011;4683;50.864;12.086;2024-01-15T07:46:39;6.63;;;5.07;;
9288;SDS011;4683;50.864;12.086;2024-01-15T07:49:08;7.07;;;5.40;;
9288;SDS011;4683;50.864;12.086;2024-01-15T07:51:40;7.70;;;6.00;;
9288;SDS011;4683;50.864;12.086;2024-01-15T07:54:10;10.10;;;4.97;;
9288;SDS011;4683;50.864;12.086;2024-01-15T07:59:24;7.03;;;4.97;;
9288;SDS011;4683;50.864;12.086;2024-01-15T08:02:03;6.57;;;5.77;;
9288;SDS011;4683;50.864;12.086;2024-01-15T08:04:32;7.57;;;5.30;;
9288;SDS011;4683;50.864;12.086;2024-01-15T08:07:03;7.57;;;6.30;;
9288;SDS011;4683;50.864;12.086;2024-01-15T08:09:48;6.20;;;5.07;;
9288;SDS011;4683;50.864;12.086;2024-01-15T08:12:38;8.73;;;5.30;;
9288;SDS011;4683;50.864;12.086;2024-01-15T08:15:07;6.47;;;4.47;;
9288;SDS011;4683;50.864;12.086;2024-01-15T08:17:54;6.50;;;5.23;;
9288;SDS011;4683;50.864;12.086;2024-01-15T08:20:23;7.30;;;4.97;;
9288;SDS011;4683;50.864;12.086;2024-01-15T08:22:53;8.27;;;5.67;;
9288;SDS011;4683;50.864;12.086;2024-01-15T08:25:26;5.57;;;4.80;;
9288;SDS011;4683;50.864;12.086;2024-01-15T08:28:04;6.40;;;4.80;;
9288;SDS011;4683;50.864;12.086;2024-01-15T08:30:34;8.27;;;5.10;;
9288;SDS011;4683;50.864;12.086;2024-01-15T08:33:26;8.47;;;5.13;;
9288;SDS011;4683;50.864;12.086;2024-01-15T08:36:09;9.03;;;5.70;;
9288;SDS011;4683;50.864;12.086;2024-01-15T08:38:39;8.23;;;4.20;;
9288;SDS011;4683;50.864;12.086;2024-01-15T08:41:20;4.97;;;4.03;;
9288;SDS011;4683;50.864;12.086;2024-01-15T08:43:53;6.60;;;4.93;;
9288;SDS011;4683;50.864;12.086;2024-01-15T08:46:40;6.10;;;5.10;;
9288;SDS011;4683;50.864;12.086;2024-01-15T08:49:40;8.33;;;5.50;;
9288;SDS011;4683;50.864;12.086;2024-01-15T08:52:18;5.83;;;4.60;;
9288;SDS011;4683;50.864;12.086;2024-01-15T08:55:04;6.77;;;5.10;;
9288;SDS011;4683;50.864;12.086;2024-01-15T08:57:34;9.03;;;5.40;;
9288;SDS011;4683;50.864;12.086;2024-01-15T09:00:07;8.47;;;5.53;;
9288;SDS011;4683;50.864;12.086;2024-01-15T09:02:37;5.73;;;3.67;;
9288;SDS011;4683;50.864;12.086;2024-01-15T09:05:10;7.50;;;4.97;;
9288;SDS011;4683;50.864;12.086;2024-01-15T09:07:39;6.47;;;4.87;;
9288;SDS011;4683;50.864;12.086;2024-01-15T09:10:10;5.70;;;4.73;;
9288;SDS011;4683;50.864;12.086;2024-01-15T09:12:45;6.83;;;3.67;;
9288;SDS011;4683;50.864;12.086;2024-01-15T09:15:20;7.80;;;4.50;;
9288;SDS011;4683;50.864;12.086;2024-01-15T09:17:50;6.90;;;4.70;;
9288;SDS011;4683;50.864;12.086;2024-01-15T09:20:24;5.53;;;4.93;;
9288;SDS011;4683;50.864;12.086;2024-01-15T09:23:00;6.83;;;5.17;;
9288;SDS011;4683;50.864;12.086;2024-01-15T09:25:44;5.20;;;4.20;;
9288;SDS011;4683;50.864;12.086;2024-01-15T09:28:24;8.93;;;5.23;;
9288;SDS011;4683;50.864;12.086;2024-01-15T09:30:56;7.13;;;5.27;;
9288;SDS011;4683;50.864;12.086;2024-01-15T09:33:26;6.40;;;4.77;;
9288;SDS011;4683;50.864;12.086;2024-01-15T09:36:01;6.63;;;4.97;;
9288;SDS011;4683;50.864;12.086;2024-01-15T09:38:40;6.93;;;4.90;;
9288;SDS011;4683;50.864;12.086;2024-01-15T09:41:12;7.80;;;5.07;;
9288;SDS011;4683;50.864;12.086;2024-01-15T09:43:46;8.20;;;4.93;;
9288;SDS011;4683;50.864;12.086;2024-01-15T09:46:19;7.50;;;4.90;;
9288;SDS011;4683;50.864;12.086;2024-01-15T09:48:48;6.73;;;4.37;;
9288;SDS011;4683;50.864;12.086;2024-01-15T09:51:25;7.37;;;4.70;;
9288;SDS011;4683;50.864;12.086;2024-01-15T09:53:55;7.17;;;5.20;;
9288;SDS011;4683;50.864;12.086;2024-01-15T09:56:32;5.83;;;5.07;;
9288;SDS011;4683;50.864;12.086;2024-01-15T09:59:09;8.73;;;4.50;;
9288;SDS011;4683;50.864;12.086;2024-01-15T10:01:59;9.53;;;5.10;;
9288;SDS011;4683;50.864;12.086;2024-01-15T10:04:49;7.67;;;4.60;;
9288;SDS011;4683;50.864;12.086;2024-01-15T10:07:35;7.37;;;4.93;;
9288;SDS011;4683;50.864;12.086;2024-01-15T10:10:24;7.00;;;4.97;;
9288;SDS011;4683;50.864;12.086;2024-01-15T10:13:26;9.83;;;5.07;;
9288;SDS011;4683;50.864;12.086;2024-01-15T10:16:07;7.20;;;4.37;;
9288;SDS011;4683;50.864;12.086;2024-01-15T10:19:00;5.97;;;4.10;;
9288;SDS011;4683;50.864;12.086;2024-01-15T10:21:32;5.60;;;4.17;;
9288;SDS011;4683;50.864;12.086;2024-01-15T10:24:03;5.20;;;3.77;;
9288;SDS011;4683;50.864;12.086;2024-01-15T10:26:34;6.13;;;4.67;;
9288;SDS011;4683;50.864;12.086;2024-01-15T10:29:09;7.40;;;4.80;;
9288;SDS011;4683;50.864;12.086;2024-01-15T10:31:38;7.30;;;4.33;;
9288;SDS011;4683;50.864;12.086;2024-01-15T10:34:18;6.13;;;4.30;;
9288;SDS011;4683;50.864;12.086;2024-01-15T10:36:51;5.63;;;4.70;;
9288;SDS011;4683;50.864;12.086;2024-01-15T10:39:23;5.27;;;4.20;;
9288;SDS011;4683;50.864;12.086;2024-01-15T10:42:10;7.10;;;4.23;;
9288;SDS011;4683;50.864;12.086;2024-01-15T10:44:47;7.53;;;4.37;;
9288;SDS011;4683;50.864;12.086;2024-01-15T10:47:44;5.90;;;4.50;;
9288;SDS011;4683;50.864;12.086;2024-01-15T10:50:33;6.73;;;4.27;;
9288;SDS011;4683;50.864;12.086;2024-01-15T10:53:09;4.43;;;4.00;;
9288;SDS011;4683;50.864;12.086;2024-01-15T10:56:04;6.03;;;4.00;;
9288;SDS011;4683;50.864;12.086;2024-01-15T10:58:39;4.90;;;3.60;;
9288;SDS011;4683;50.864;12.086;2024-01-15T11:01:55;6.80;;;4.80;;
9288;SDS011;4683;50.864;12.086;2024-01-15T11:04:50;6.83;;;4.00;;
9288;SDS011;4683;50.864;12.086;2024-01-15T11:08:24;5.70;;;4.03;;
9288;SDS011;4683;50.864;12.086;2024-01-15T11:11:22;8.10;;;4.70;;
9288;SDS011;4683;50.864;12.086;2024-01-15T11:14:38;6.90;;;4.57;;
9288;SDS011;4683;50.864;12.086;2024-01-15T11:17:13;6.77;;;4.27;;
9288;SDS011;4683;50.864;12.086;2024-01-15T11:19:45;6.73;;;4.17;;
9288;SDS011;4683;50.864;12.086;2024-01-15T11:25:44;7.70;;;4.57;;
9288;SDS011;4683;50.864;12.086;2024-01-15T11:28:16;5.13;;;4.07;;
9288;SDS011;4683;50.864;12.086;2024-01-15T11:31:26;5.70;;;4.80;;
9288;SDS011;4683;50.864;12.086;2024-01-15T11:34:51;5.40;;;4.20;;
9288;SDS011;4683;50.864;12.086;2024-01-15T11:40:55;5.43;;;4.53;;
9288;SDS011;4683;50.864;12.086;2024-01-15T11:44:16;6.23;;;4.70;;
9288;SDS011;4683;50.864;12.086;2024-01-15T11:47:26;6.47;;;4.23;;
9288;SDS011;4683;50.864;12.086;2024-01-15T11:50:47;6.60;;;4.70;;
9288;SDS011;4683;50.864;12.086;2024-01-15T11:54:04;7.57;;;4.97;;
9288;SDS011;4683;50.864;12.086;2024-01-15T11:57:40;5.10;;;3.53;;
9288;SDS011;4683;50.864;12.086;2024-01-15T12:00:38;7.40;;;4.30;;
9288;SDS011;4683;50.864;12.086;2024-01-15T12:03:32;6.60;;;4.40;;
9288;SDS011;4683;50.864;12.086;2024-01-15T12:06:12;8.03;;;5.10;;
9288;SDS011;4683;50.864;12.086;2024-01-15T12:09:14;5.83;;;4.30;;
9288;SDS011;4683;50.864;12.086;2024-01-15T12:12:32;5.40;;;4.07;;
9288;SDS011;4683;50.864;12.086;2024-01-15T12:15:46;6.57;;;4.70;;
9288;SDS011;4683;50.864;12.086;2024-01-15T12:18:42;5.47;;;3.90;;
9288;SDS011;4683;50.864;12.086;2024-01-15T12:21:16;4.90;;;4.07;;
9288;SDS011;4683;50.864;12.086;2024-01-15T12:24:07;4.97;;;3.20;;
9288;SDS011;4683;50.864;12.086;2024-01-15T12:26:46;5.40;;;3.80;;
9288;SDS011;4683;50.864;12.086;2024-01-15T12:29:26;4.90;;;3.70;;
9288;SDS011;4683;50.864;12.086;2024-01-15T12:32:06;4.93;;;3.37;;
9288;SDS011;4683;50.864;12.086;2024-01-15T12:34:58;5.00;;;3.57;;
9288;SDS011;4683;50.864;12.086;2024-01-15T12:37:55;4.67;;;3.77;;
9288;SDS011;4683;50.864;12.086;2024-01-15T12:41:01;4.10;;;3.50;;
9288;SDS011;4683;50.864;12.086;2024-01-15T12:44:07;5.27;;;3.63;;
9288;SDS011;4683;50.864;12.086;2024-01-15T12:47:09;3.20;;;2.90;;
9288;SDS011;4683;50.864;12.086;2024-01-15T12:50:02;5.53;;;3.40;;
9288;SDS011;4683;50.864;12.086;2024-01-15T12:52:43;4.87;;;3.40;;
9288;SDS011;4683;50.864;12.086;2024-01-15T12:55:41;4.97;;;3.60;;
9288;SDS011;4683;50.864;12.086;2024-01-15T12:58:14;4.90;;;3.50;;
9288;SDS011;4683;50.864;12.086;2024-01-15T13:00:43;5.03;;;3.50;;
9288;SDS011;4683;50.864;12.086;2024-01-15T13:03:32;2.80;;;2.13;;
9288;SDS011;4683;50.864;12.086;2024-01-15T13:06:19;7.40;;;3.00;;
9288;SDS011;4683;50.864;12.086;2024-01-15T13:08:47;7.87;;;3.50;;
9288;SDS011;4683;50.864;12.086;2024-01-15T13:11:24;3.90;;;3.33;;
9288;SDS011;4683;50.864;12.086;2024-01-15T13:14:23;6.33;;;3.40;;
9288;SDS011;4683;50.864;12.086;2024-01-15T13:17:16;7.10;;;3.67;;
9288;SDS011;4683;50.864;12.086;2024-01-15T13:20:18;6.00;;;3.70;;
9288;SDS011;4683;50.864;12.086;2024-01-15T13:23:25;5.80;;;3.83;;
9288;SDS011;4683;50.864;12.086;2024-01-15T13:26:11;5.47;;;3.43;;
9288;SDS011;4683;50.864;12.086;2024-01-15T13:29:02;4.67;;;3.53;;
9288;SDS011;4683;50.864;12.086;2024-01-15T13:31:47;5.30;;;4.03;;
9288;SDS011;4683;50.864;12.086;2024-01-15T13:34:45;4.03;;;3.57;;
9288;SDS011;4683;50.864;12.086;2024-01-15T13:41:56;6.00;;;4.30;;
9288;SDS011;4683;50.864;12.086;2024-01-15T13:45:24;5.03;;;4.37;;
9288;SDS011;4683;50.864;12.086;2024-01-15T13:48:42;6.47;;;4.53;;
9288;SDS011;4683;50.864;12.086;2024-01-15T13:52:04;7.13;;;4.13;;
9288;SDS011;4683;50.864;12.086;2024-01-15T13:55:15;7.50;;;4.07;;
9288;SDS011;4683;50.864;12.086;2024-01-15T14:01:48;8.17;;;4.43;;
9288;SDS011;4683;50.864;12.086;2024-01-15T14:05:07;4.97;;;4.00;;
9288;SDS011;4683;50.864;12.086;2024-01-15T14:07:48;6.53;;;4.47;;
9288;SDS011;4683;50.864;12.086;2024-01-15T14:10:55;5.10;;;4.10;;
9288;SDS011;4683;50.864;12.086;2024-01-15T14:14:10;4.43;;;3.50;;
9288;SDS011;4683;50.864;12.086;2024-01-15T14:16:42;6.53;;;3.90;;
9288;SDS011;4683;50.864;12.086;2024-01-15T14:19:12;6.07;;;3.90;;
9288;SDS011;4683;50.864;12.086;2024-01-15T14:21:41;6.00;;;4.17;;
9288;SDS011;4683;50.864;12.086;2024-01-15T14:24:10;6.97;;;4.17;;
9288;SDS011;4683;50.864;12.086;2024-01-15T14:26:54;6.77;;;3.90;;
9288;SDS011;4683;50.864;12.086;2024-01-15T14:29:25;5.43;;;4.10;;
9288;SDS011;4683;50.864;12.086;2024-01-15T14:32:20;5.47;;;4.53;;
9288;SDS011;4683;50.864;12.086;2024-01-15T14:35:20;8.03;;;5.10;;
9288;SDS011;4683;50.864;12.086;2024-01-15T14:38:11;7.73;;;4.77;;
9288;SDS011;4683;50.864;12.086;2024-01-15T14:40:47;6.27;;;4.77;;
9288;SDS011;4683;50.864;12.086;2024-01-15T14:43:45;5.90;;;4.40;;
9288;SDS011;4683;50.864;12.086;2024-01-15T14:47:14;5.83;;;4.50;;
9288;SDS011;4683;50.864;12.086;2024-01-15T14:50:20;4.40;;;4.00;;
9288;SDS011;4683;50.864;12.086;2024-01-15T14:53:11;8.87;;;4.93;;
9288;SDS011;4683;50.864;12.086;2024-01-15T14:55:55;5.33;;;4.17;;
9288;SDS011;4683;50.864;12.086;2024-01-15T14:58:43;5.73;;;4.93;;
9288;SDS011;4683;50.864;12.086;2024-01-15T15:01:19;5.50;;;4.40;;
9288;SDS011;4683;50.864;12.086;2024-01-15T15:04:00;6.63;;;4.83;;
9288;SDS011;4683;50.864;12.086;2024-01-15T15:06:28;6.87;;;5.00;;
9288;SDS011;4683;50.864;12.086;2024-01-15T15:09:14;7.53;;;6.07;;
9288;SDS011;4683;50.864;12.086;2024-01-15T15:11:49;6.80;;;5.30;;
9288;SDS011;4683;50.864;12.086;2024-01-15T15:14:41;6.83;;;5.63;;
9288;SDS011;4683;50.864;12.086;2024-01-15T15:17:12;5.43;;;4.13;;
9288;SDS011;4683;50.864;12.086;2024-01-15T15:19:43;5.80;;;4.87;;
9288;SDS011;4683;50.864;12.086;2024-01-15T15:22:19;6.57;;;5.20;;
9288;SDS011;4683;50.864;12.086;2024-01-15T15:25:00;6.90;;;5.13;;
9288;SDS011;4683;50.864;12.086;2024-01-15T15:27:29;5.67;;;4.77;;
9288;SDS011;4683;50.864;12.086;2024-01-15T15:29:57;4.87;;;4.23;;
9288;SDS011;4683;50.864;12.086;2024-01-15T15:32:26;6.30;;;4.80;;
9288;SDS011;4683;50.864;12.086;2024-01-15T15:34:57;6.33;;;4.67;;
9288;SDS011;4683;50.864;12.086;2024-01-15T15:37:26;6.30;;;4.77;;
9288;SDS011;4683;50.864;12.086;2024-01-15T15:39:56;6.23;;;5.20;;
9288;SDS011;4683;50.864;12.086;2024-01-15T15:42:25;5.60;;;4.40;;
9288;SDS011;4683;50.864;12.086;2024-01-15T15:44:54;6.60;;;4.07;;
9288;SDS011;4683;50.864;12.086;2024-01-15T15:47:42;6.23;;;4.93;;
9288;SDS011;4683;50.864;12.086;2024-01-15T15:50:20;6.40;;;4.97;;
9288;SDS011;4683;50.864;12.086;2024-01-15T15:53:07;8.07;;;5.20;;
9288;SDS011;4683;50.864;12.086;2024-01-15T15:55:42;5.07;;;4.07;;
9288;SDS011;4683;50.864;12.086;2024-01-15T15:58:35;6.83;;;5.07;;
9288;SDS011;4683;50.864;12.086;2024-01-15T16:01:44;5.13;;;4.57;;
9288;SDS011;4683;50.864;12.086;2024-01-15T16:04:36;6.40;;;4.33;;
9288;SDS011;4683;50.864;12.086;2024-01-15T16:07:26;6.83;;;4.77;;
9288;SDS011;4683;50.864;12.086;2024-01-15T16:10:17;5.53;;;4.80;;
9288;SDS011;4683;50.864;12.086;2024-01-15T16:12:50;6.00;;;4.07;;
9288;SDS011;4683;50.864;12.086;2024-01-15T16:15:20;5.37;;;4.23;;
9288;SDS011;4683;50.864;12.086;2024-01-15T16:18:13;5.53;;;3.97;;
9288;SDS011;4683;50.864;12.086;2024-01-15T16:20:47;4.57;;;3.57;;
9288;SDS011;4683;50.864;12.086;2024-01-15T16:23:20;5.03;;;4.00;;
9288;SDS011;4683;50.864;12.086;2024-01-15T16:25:49;4.67;;;4.00;;
9288;SDS011;4683;50.864;12.086;2024-01-15T16:28:17;7.00;;;4.77;;
9288;SDS011;4683;50.864;12.086;2024-01-15T16:30:50;5.57;;;4.50;;
9288;SDS011;4683;50.864;12.086;2024-01-15T16:33:19;4.63;;;4.13;;